KSNS/SNS METAR and TAF weather

Enter ICAO airport designator
Station Type Date Time Source
KSNS METAR 2020/06/06 20:53 UTC NOAA

KSNS 062053Z AUTO 28013KT 10SM CLR 20/08 A3002 RMK AO2 SLP173 T02000083 51005


Station Type Date Time Source
KSNS Decoded METAR 2020/06/06 20:53 UTC NOAA

SALINAS MUNICIPAL AIRPORT, CA, United States (KSNS) 36-40N 121-36W 30M
Jun 06, 2020 - 04:53 PM EDT / 2020.06.06 2053 UTC
Wind: from the W (280 degrees) at 15 MPH (13 KT):0
Visibility: 10 mile(s):0
Sky conditions: clear
Temperature: 68.0 F (20.0 C)
Dew Point: 46.9 F (8.3 C)
Relative Humidity: 46%
Pressure (altimeter): 30.02 in. Hg (1016 hPa)
Pressure tendency: 0.01 inches (0.5 hPa) higher than three hours ago
ob: KSNS 062053Z AUTO 28013KT 10SM CLR 20/08 A3002 RMK AO2 SLP173 T02000083 51005
cycle: 21

Station Type Date Time Source
KSNS TAF 2020/06/06 18:42 UTC NOAA

TAF KSNS 061739Z 0618/0718 30012KT P6SM SCT028
FM062100 26015G22KT P6SM FEW020 FEW200
FM070400 28011KT P6SM SCT015
FM070900 26009KT P6SM FEW015 SCT025
FM071700 29012KT P6SM FEW200

Example: see airport list